createdAt,value
2022-07-26T00:01:23.112Z,17.27
2022-07-26T00:03:55.927Z,17.29
2022-07-26T00:06:25.632Z,17.21
2022-07-26T00:08:54.070Z,17.16
2022-07-26T00:11:23.023Z,17.18
2022-07-26T00:13:51.239Z,17.16
2022-07-26T00:16:19.436Z,17.17
2022-07-26T00:18:47.968Z,17.21
2022-07-26T00:21:17.608Z,17.19
2022-07-26T00:23:45.918Z,17.18
2022-07-26T00:26:14.220Z,17.17
2022-07-26T00:28:42.676Z,17.17
2022-07-26T00:31:12.211Z,17.23
2022-07-26T00:33:40.859Z,17.19
2022-07-26T00:36:09.714Z,17.17
2022-07-26T00:38:39.601Z,17.23
2022-07-26T00:41:09.355Z,17.17
2022-07-26T00:43:37.705Z,17.18
2022-07-26T00:46:06.270Z,17.10
2022-07-26T00:48:34.532Z,17.10
2022-07-26T00:51:02.833Z,17.11
2022-07-26T00:53:31.380Z,17.07
2022-07-26T00:56:00.979Z,17.06
2022-07-26T00:58:29.159Z,17.05
2022-07-26T01:00:57.433Z,16.99
2022-07-26T01:03:29.256Z,16.96
2022-07-26T01:06:05.094Z,16.94
2022-07-26T01:08:33.384Z,16.89
2022-07-26T01:11:02.977Z,16.82
2022-07-26T01:13:35.043Z,16.80
2022-07-26T01:16:04.072Z,16.82
2022-07-26T01:18:32.305Z,16.79
2022-07-26T01:21:09.075Z,16.82
2022-07-26T01:23:44.905Z,16.84
2022-07-26T01:26:13.874Z,16.85
2022-07-26T01:28:44.973Z,16.93
2022-07-26T01:31:13.496Z,16.94
2022-07-26T01:33:41.683Z,16.96
2022-07-26T01:36:12.528Z,16.97
2022-07-26T01:38:41.128Z,16.88
2022-07-26T01:41:11.240Z,16.83
2022-07-26T01:43:39.801Z,16.85
2022-07-26T01:46:10.267Z,16.89
2022-07-26T01:48:38.676Z,16.89
2022-07-26T01:51:07.035Z,16.92
2022-07-26T01:53:35.634Z,16.95
2022-07-26T01:56:03.822Z,16.96
2022-07-26T01:58:33.551Z,16.95
2022-07-26T02:01:01.683Z,16.90
2022-07-26T02:03:29.846Z,16.85
2022-07-26T02:05:58.065Z,16.76
2022-07-26T02:08:26.253Z,16.71
2022-07-26T02:11:04.244Z,16.64
2022-07-26T02:13:36.463Z,16.61
2022-07-26T02:16:05.864Z,16.61
2022-07-26T02:18:34.411Z,16.56
2022-07-26T02:21:03.616Z,16.57
2022-07-26T02:23:32.005Z,16.57
2022-07-26T02:26:00.634Z,16.58
2022-07-26T02:28:29.378Z,16.60
2022-07-26T02:30:59.027Z,16.53
2022-07-26T02:33:27.265Z,16.55
2022-07-26T02:35:55.609Z,16.52
2022-07-26T02:38:25.151Z,16.50
2022-07-26T02:40:53.885Z,16.47
2022-07-26T02:43:22.184Z,16.48
2022-07-26T02:46:03.723Z,16.48
2022-07-26T02:48:33.500Z,16.48
2022-07-26T02:51:01.735Z,16.46
2022-07-26T02:53:29.958Z,16.42
2022-07-26T02:55:58.142Z,16.44
2022-07-26T02:58:27.107Z,16.48
2022-07-26T03:00:55.585Z,16.48
2022-07-26T03:03:23.892Z,16.46
2022-07-26T03:05:53.495Z,16.48
2022-07-26T03:08:21.969Z,16.42
2022-07-26T03:10:50.086Z,16.40
2022-07-26T03:13:18.498Z,16.38
2022-07-26T03:15:46.918Z,16.38
2022-07-26T03:18:15.321Z,16.36
2022-07-26T03:20:43.520Z,16.35
2022-07-26T03:23:13.187Z,16.35
2022-07-26T03:25:41.510Z,16.33
2022-07-26T03:28:09.797Z,16.33
2022-07-26T03:30:38.020Z,16.33
2022-07-26T03:33:06.919Z,16.33
2022-07-26T03:35:36.710Z,16.29
2022-07-26T03:38:05.237Z,16.27
2022-07-26T03:40:35.194Z,16.26
2022-07-26T03:43:03.759Z,16.24
2022-07-26T03:45:32.005Z,16.23
2022-07-26T03:48:00.328Z,16.23
2022-07-26T03:50:28.516Z,16.23
2022-07-26T03:52:56.767Z,16.22
2022-07-26T03:55:42.355Z,16.22
2022-07-26T03:58:11.901Z,16.26
2022-07-26T04:00:40.169Z,16.16
2022-07-26T04:03:08.386Z,16.15
2022-07-26T04:05:36.680Z,16.14
2022-07-26T04:08:05.815Z,16.16
2022-07-26T04:10:34.228Z,16.16
2022-07-26T04:13:02.414Z,16.18
2022-07-26T04:15:32.083Z,16.14
2022-07-26T04:18:00.318Z,16.19
2022-07-26T04:20:28.622Z,16.22
2022-07-26T04:22:56.818Z,16.22
2022-07-26T04:25:25.354Z,16.21
2022-07-26T04:27:53.721Z,16.22
2022-07-26T04:30:21.922Z,16.24
2022-07-26T04:32:51.659Z,16.28
2022-07-26T04:35:19.955Z,16.27
2022-07-26T04:37:48.689Z,16.23
2022-07-26T04:40:21.470Z,16.23
2022-07-26T04:42:50.516Z,16.17
2022-07-26T04:45:19.225Z,16.17
2022-07-26T04:47:51.381Z,16.15
2022-07-26T04:50:20.536Z,16.10
2022-07-26T04:52:49.104Z,16.06
2022-07-26T04:55:18.072Z,16.04
2022-07-26T04:57:47.581Z,16.02
2022-07-26T05:00:22.938Z,15.99
2022-07-26T05:02:55.769Z,15.98
2022-07-26T05:05:25.080Z,15.98
2022-07-26T05:07:55.094Z,16.00
2022-07-26T05:10:24.619Z,15.97
2022-07-26T05:12:52.804Z,15.87
2022-07-26T05:15:21.709Z,15.86
2022-07-26T05:17:50.882Z,15.84
2022-07-26T05:20:20.454Z,15.83
2022-07-26T05:22:48.664Z,15.83
2022-07-26T05:25:16.808Z,15.82
2022-07-26T05:27:45.399Z,15.86
2022-07-26T05:30:14.075Z,15.87
2022-07-26T05:32:42.394Z,15.90
2022-07-26T05:35:11.142Z,15.94
2022-07-26T05:37:40.992Z,15.88
2022-07-26T05:40:10.430Z,15.87
2022-07-26T05:42:38.652Z,15.86
2022-07-26T05:45:07.990Z,15.82
2022-07-26T05:47:36.117Z,15.82
2022-07-26T05:50:04.852Z,15.86
2022-07-26T05:52:33.050Z,15.89
2022-07-26T05:55:02.585Z,15.93
2022-07-26T05:57:30.926Z,15.96
2022-07-26T05:59:59.666Z,15.95
2022-07-26T06:02:28.274Z,15.95
2022-07-26T06:04:56.545Z,15.95
2022-07-26T06:07:24.833Z,16.02
2022-07-26T06:09:52.988Z,16.01
2022-07-26T06:12:22.564Z,16.06
2022-07-26T06:14:50.789Z,16.06
2022-07-26T06:17:19.371Z,16.07
2022-07-26T06:19:48.309Z,16.08
2022-07-26T06:22:16.758Z,16.05
2022-07-26T06:24:45.053Z,16.08
2022-07-26T06:27:13.204Z,16.09
2022-07-26T06:29:42.775Z,16.12
2022-07-26T06:32:11.075Z,16.15
2022-07-26T06:34:39.334Z,16.17
2022-07-26T06:37:07.551Z,16.18
2022-07-26T06:39:35.706Z,16.17
2022-07-26T06:42:04.017Z,16.15
2022-07-26T06:44:32.171Z,16.15
2022-07-26T06:47:02.169Z,16.16
2022-07-26T06:49:30.498Z,16.21
2022-07-26T06:51:58.860Z,16.30
2022-07-26T06:54:27.025Z,16.32
2022-07-26T06:56:55.196Z,16.38
2022-07-26T06:59:23.396Z,16.47
2022-07-26T07:01:59.524Z,16.49
2022-07-26T07:04:30.811Z,16.50
2022-07-26T07:07:05.143Z,16.52
2022-07-26T07:09:34.992Z,16.54
2022-07-26T07:12:09.934Z,16.57
2022-07-26T07:14:39.204Z,16.54
2022-07-26T07:17:11.594Z,16.56
2022-07-26T07:19:42.848Z,16.53
2022-07-26T07:22:12.516Z,16.46
2022-07-26T07:24:41.166Z,16.45
2022-07-26T07:27:10.810Z,16.48
2022-07-26T07:29:41.346Z,16.48
2022-07-26T07:32:18.405Z,16.54
2022-07-26T07:34:48.912Z,16.63
2022-07-26T07:37:17.483Z,16.78
2022-07-26T07:39:48.760Z,16.91
2022-07-26T07:42:19.348Z,17.07
2022-07-26T07:44:48.072Z,17.20
2022-07-26T07:47:16.405Z,17.32
2022-07-26T07:49:44.823Z,17.37
2022-07-26T07:52:14.445Z,17.41
2022-07-26T07:54:43.496Z,17.41
2022-07-26T07:57:11.954Z,17.37
2022-07-26T07:59:42.858Z,17.43
2022-07-26T08:02:12.941Z,17.46
2022-07-26T08:04:41.271Z,17.50
2022-07-26T08:07:09.725Z,17.56
2022-07-26T08:09:42.839Z,17.65
2022-07-26T08:12:12.487Z,17.75
2022-07-26T08:14:41.453Z,17.87
2022-07-26T08:17:09.957Z,17.99
2022-07-26T08:19:41.860Z,18.11
2022-07-26T08:22:11.034Z,18.18
2022-07-26T08:24:41.430Z,18.27
2022-07-26T08:27:09.656Z,18.37
2022-07-26T08:29:37.986Z,18.42
2022-07-26T08:32:07.531Z,18.47
2022-07-26T08:34:35.984Z,18.60
2022-07-26T08:37:17.176Z,18.76
2022-07-26T08:39:48.853Z,18.94
2022-07-26T08:42:22.881Z,19.03
2022-07-26T08:44:52.081Z,18.92
2022-07-26T08:47:35.455Z,18.81
2022-07-26T08:50:09.750Z,18.74
2022-07-26T08:52:40.924Z,18.67
2022-07-26T08:55:11.688Z,18.58
2022-07-26T08:57:39.853Z,18.51
2022-07-26T09:00:20.192Z,18.54
2022-07-26T09:02:49.384Z,18.53
2022-07-26T09:05:20.996Z,18.53
2022-07-26T09:07:49.394Z,18.52
2022-07-26T09:10:19.096Z,18.56
2022-07-26T09:12:47.489Z,18.53
2022-07-26T09:15:23.084Z,18.49
2022-07-26T09:17:54.258Z,18.42
2022-07-26T09:20:27.839Z,18.26
2022-07-26T09:23:03.295Z,18.10
2022-07-26T09:25:35.826Z,17.93
2022-07-26T09:28:05.266Z,17.81
2022-07-26T09:30:34.024Z,17.80
2022-07-26T09:33:05.220Z,17.81
2022-07-26T09:35:52.335Z,17.84
2022-07-26T09:38:21.013Z,17.79
2022-07-26T09:40:51.761Z,17.83
2022-07-26T09:43:24.065Z,17.88
2022-07-26T09:46:06.333Z,18.02
2022-07-26T09:49:07.055Z,18.12
2022-07-26T09:51:42.751Z,18.24
2022-07-26T09:54:12.807Z,18.27
2022-07-26T09:57:00.006Z,18.18
2022-07-26T09:59:29.689Z,17.98
2022-07-26T10:01:59.967Z,17.89
2022-07-26T10:04:28.566Z,17.86
2022-07-26T10:06:58.280Z,17.91
2022-07-26T10:09:27.290Z,17.96
2022-07-26T10:12:01.074Z,18.06
2022-07-26T10:14:40.378Z,18.08
2022-07-26T10:17:42.786Z,17.99
2022-07-26T10:20:19.339Z,17.94
2022-07-26T10:22:53.198Z,17.87
2022-07-26T10:25:48.090Z,17.82
2022-07-26T10:28:33.540Z,17.91
2022-07-26T10:31:34.862Z,18.09
2022-07-26T10:34:04.274Z,18.21
2022-07-26T10:36:35.718Z,18.31
2022-07-26T10:39:14.446Z,18.47
2022-07-26T10:41:45.737Z,18.59
2022-07-26T10:44:17.562Z,18.71
2022-07-26T10:47:11.448Z,18.75
2022-07-26T10:49:41.079Z,18.88
2022-07-26T10:52:12.273Z,18.97
2022-07-26T10:55:13.589Z,19.12
2022-07-26T10:57:43.720Z,19.18
2022-07-26T11:00:21.152Z,19.24
2022-07-26T11:02:52.897Z,19.30
2022-07-26T11:05:23.162Z,19.39
2022-07-26T11:08:05.406Z,19.43
2022-07-26T11:10:35.775Z,19.46
2022-07-26T11:13:06.925Z,19.44
2022-07-26T11:15:38.172Z,19.69
2022-07-26T11:18:27.956Z,19.94
2022-07-26T11:20:58.089Z,20.07
2022-07-26T11:23:35.273Z,20.43
2022-07-26T11:26:09.910Z,20.68
2022-07-26T11:28:52.981Z,20.64
2022-07-26T11:31:49.585Z,20.52
2022-07-26T11:34:19.313Z,20.30
2022-07-26T11:36:48.448Z,20.04
2022-07-26T11:39:22.020Z,19.83
2022-07-26T11:41:51.153Z,19.74
2022-07-26T11:44:21.461Z,19.70
2022-07-26T11:46:52.361Z,20.00
2022-07-26T11:49:23.109Z,20.09
2022-07-26T11:52:01.146Z,20.06
2022-07-26T11:54:31.346Z,20.08
2022-07-26T11:57:00.715Z,20.05
2022-07-26T11:59:31.373Z,20.05
2022-07-26T12:02:02.379Z,20.01
2022-07-26T12:04:33.205Z,20.00
2022-07-26T12:07:04.536Z,19.96
2022-07-26T12:09:35.115Z,19.87
2022-07-26T12:12:04.928Z,19.84
2022-07-26T12:14:35.144Z,19.88
2022-07-26T12:17:14.923Z,19.88
2022-07-26T12:19:44.676Z,19.92
2022-07-26T12:22:15.101Z,19.95
2022-07-26T12:24:49.211Z,20.05
2022-07-26T12:27:20.540Z,20.08
2022-07-26T12:29:51.172Z,20.06
2022-07-26T12:32:22.391Z,20.09
2022-07-26T12:34:59.248Z,20.06
2022-07-26T12:37:39.463Z,20.08
2022-07-26T12:40:11.449Z,20.09
2022-07-26T12:42:41.845Z,20.09
2022-07-26T12:45:12.647Z,20.06
2022-07-26T12:47:44.749Z,20.01
2022-07-26T12:50:15.515Z,20.06
2022-07-26T12:52:43.935Z,20.04
2022-07-26T12:55:14.998Z,20.04
2022-07-26T12:57:46.130Z,20.02
2022-07-26T13:00:17.669Z,20.11
2022-07-26T13:02:47.507Z,20.21
2022-07-26T13:05:16.743Z,20.30
2022-07-26T13:07:45.126Z,20.39
2022-07-26T13:10:32.600Z,20.48
2022-07-26T13:13:01.682Z,20.58
2022-07-26T13:15:37.425Z,20.67
2022-07-26T13:18:09.110Z,20.73
2022-07-26T13:20:38.432Z,20.87
2022-07-26T13:23:11.245Z,20.99
2022-07-26T13:25:40.547Z,21.03
2022-07-26T13:28:10.243Z,21.06
2022-07-26T13:30:43.114Z,21.05
2022-07-26T13:33:13.013Z,20.95
2022-07-26T13:35:42.828Z,20.89
2022-07-26T13:38:11.645Z,20.79
2022-07-26T13:40:39.855Z,20.73
2022-07-26T13:43:08.477Z,20.66
2022-07-26T13:45:36.773Z,20.62
2022-07-26T13:48:05.483Z,20.59
2022-07-26T13:50:35.294Z,20.56
2022-07-26T13:53:03.867Z,20.54
2022-07-26T13:55:32.101Z,20.54
2022-07-26T13:58:00.390Z,20.58
2022-07-26T14:00:29.962Z,20.54
2022-07-26T14:02:59.869Z,20.55
2022-07-26T14:05:29.372Z,20.62
2022-07-26T14:07:59.034Z,20.63
2022-07-26T14:10:27.346Z,20.68
2022-07-26T14:12:55.632Z,20.63
2022-07-26T14:15:23.989Z,20.55
2022-07-26T14:17:52.973Z,20.58
2022-07-26T14:20:21.558Z,20.58
2022-07-26T14:22:53.641Z,20.60
2022-07-26T14:25:24.531Z,20.67
2022-07-26T14:27:53.000Z,20.64
2022-07-26T14:30:22.255Z,20.63
2022-07-26T14:32:51.768Z,20.58
2022-07-26T14:35:20.014Z,20.54
2022-07-26T14:37:48.620Z,20.44
2022-07-26T14:40:18.260Z,20.43
2022-07-26T14:42:48.148Z,20.48
2022-07-26T14:45:16.808Z,20.56
2022-07-26T14:47:45.894Z,20.58
2022-07-26T14:50:15.759Z,20.63
2022-07-26T14:52:46.225Z,20.59
2022-07-26T14:55:15.502Z,20.49
2022-07-26T14:57:44.278Z,20.45
2022-07-26T15:00:16.143Z,20.42
2022-07-26T15:02:46.806Z,20.35
2022-07-26T15:05:16.265Z,20.35
2022-07-26T15:07:45.202Z,20.32
2022-07-26T15:10:15.393Z,20.32
2022-07-26T15:12:44.812Z,20.32
2022-07-26T15:15:14.528Z,20.39
2022-07-26T15:17:42.766Z,20.50
2022-07-26T15:20:11.277Z,20.67
2022-07-26T15:22:39.811Z,20.78
2022-07-26T15:25:09.044Z,20.76
2022-07-26T15:27:37.177Z,20.73
2022-07-26T15:30:10.220Z,20.71
2022-07-26T15:32:43.382Z,20.74
2022-07-26T15:35:14.079Z,20.68
2022-07-26T15:37:44.093Z,20.63
2022-07-26T15:40:13.443Z,20.53
2022-07-26T15:42:44.280Z,20.44
2022-07-26T15:45:14.805Z,20.37
2022-07-26T15:47:57.370Z,20.29
2022-07-26T15:50:27.655Z,20.26
2022-07-26T15:52:55.933Z,20.22
2022-07-26T15:55:24.210Z,20.16
2022-07-26T15:57:53.621Z,20.17
2022-07-26T16:00:21.866Z,20.13
2022-07-26T16:02:51.734Z,20.02
2022-07-26T16:05:20.031Z,19.86
2022-07-26T16:07:48.471Z,19.73
2022-07-26T16:10:17.661Z,19.75
2022-07-26T16:12:45.888Z,19.70
2022-07-26T16:15:14.153Z,19.68
2022-07-26T16:17:42.441Z,19.51
2022-07-26T16:20:12.370Z,19.46
2022-07-26T16:22:41.995Z,19.45
2022-07-26T16:25:13.744Z,19.38
2022-07-26T16:27:43.268Z,19.42
2022-07-26T16:30:13.001Z,19.46
2022-07-26T16:32:41.351Z,19.42
2022-07-26T16:35:11.841Z,19.37
2022-07-26T16:37:41.614Z,19.37
2022-07-26T16:40:11.725Z,19.45
2022-07-26T16:42:39.959Z,19.44
2022-07-26T16:45:10.071Z,19.43
2022-07-26T16:47:38.368Z,19.45
2022-07-26T16:50:07.862Z,19.42
2022-07-26T16:52:37.929Z,19.55
2022-07-26T16:55:10.922Z,19.52
2022-07-26T16:57:39.712Z,19.57
2022-07-26T17:00:11.077Z,19.63
2022-07-26T17:02:40.086Z,19.53
2022-07-26T17:05:09.661Z,19.56
2022-07-26T17:07:39.382Z,19.51
2022-07-26T17:10:09.688Z,19.39
2022-07-26T17:12:39.006Z,19.35
2022-07-26T17:15:09.962Z,19.31
2022-07-26T17:17:38.278Z,19.21
2022-07-26T17:20:07.869Z,19.20
2022-07-26T17:22:36.219Z,19.14
2022-07-26T17:25:07.372Z,19.09
2022-07-26T17:27:36.358Z,19.05
2022-07-26T17:30:07.067Z,19.10
2022-07-26T17:32:36.212Z,19.13
2022-07-26T17:35:04.876Z,19.13
2022-07-26T17:37:35.149Z,19.21
2022-07-26T17:40:08.098Z,19.28
2022-07-26T17:42:36.711Z,19.26
2022-07-26T17:45:05.396Z,19.31
2022-07-26T17:47:35.157Z,19.28
2022-07-26T17:52:55.128Z,19.18
2022-07-26T17:55:27.224Z,19.14
2022-07-26T17:57:55.592Z,19.08
2022-07-26T18:00:28.691Z,19.05
2022-07-26T18:02:58.122Z,19.07
2022-07-26T18:05:33.971Z,19.09
2022-07-26T18:08:04.315Z,19.12
2022-07-26T18:10:33.924Z,19.15
2022-07-26T18:13:02.061Z,19.15
2022-07-26T18:15:30.314Z,19.23
2022-07-26T18:17:58.467Z,19.21
2022-07-26T18:20:26.756Z,19.13
2022-07-26T18:22:55.595Z,19.12
2022-07-26T18:25:24.005Z,19.12
2022-07-26T18:27:54.081Z,19.14
2022-07-26T18:30:22.609Z,19.15
2022-07-26T18:32:50.870Z,19.10
2022-07-26T18:35:19.145Z,18.95
2022-07-26T18:37:47.808Z,18.86
2022-07-26T18:40:16.077Z,18.80
2022-07-26T18:42:44.268Z,18.74
2022-07-26T18:45:13.935Z,18.75
2022-07-26T18:47:42.952Z,18.76
2022-07-26T18:50:12.312Z,18.77
2022-07-26T18:52:45.646Z,18.75
2022-07-26T18:55:15.058Z,18.62
2022-07-26T18:57:45.343Z,18.48
2022-07-26T19:00:18.252Z,18.46
2022-07-26T19:02:48.144Z,18.42
2022-07-26T19:05:17.458Z,18.46
2022-07-26T19:07:45.967Z,18.45
2022-07-26T19:10:14.509Z,18.47
2022-07-26T19:12:43.844Z,18.44
2022-07-26T19:15:12.788Z,18.41
2022-07-26T19:17:42.603Z,18.46
2022-07-26T19:20:12.471Z,18.37
2022-07-26T19:22:41.222Z,18.37
2022-07-26T19:25:10.918Z,18.34
2022-07-26T19:27:39.565Z,18.31
2022-07-26T19:30:10.105Z,18.28
2022-07-26T19:32:38.298Z,18.24
2022-07-26T19:35:10.624Z,18.24
2022-07-26T19:37:38.868Z,18.24
2022-07-26T19:40:08.446Z,18.21
2022-07-26T19:42:36.532Z,18.17
2022-07-26T19:45:05.304Z,18.12
2022-07-26T19:47:35.823Z,18.10
2022-07-26T19:50:05.952Z,18.05
2022-07-26T19:52:35.755Z,18.02
2022-07-26T19:55:04.224Z,17.93
2022-07-26T19:57:32.570Z,17.91
2022-07-26T20:00:02.723Z,17.89
2022-07-26T20:02:31.170Z,17.85
2022-07-26T20:05:00.620Z,17.81
2022-07-26T20:07:28.901Z,17.78
2022-07-26T20:09:58.525Z,17.74
2022-07-26T20:12:27.062Z,17.72
2022-07-26T20:14:55.209Z,17.70
2022-07-26T20:17:23.980Z,17.69
2022-07-26T20:19:52.593Z,17.69
2022-07-26T20:22:20.969Z,17.68
2022-07-26T20:24:54.964Z,17.69
2022-07-26T20:27:24.741Z,17.70
2022-07-26T20:29:58.779Z,17.69
2022-07-26T20:32:29.223Z,17.71
2022-07-26T20:34:57.860Z,17.73
2022-07-26T20:37:26.063Z,17.76
2022-07-26T20:39:54.262Z,17.77
2022-07-26T20:42:24.524Z,17.80
2022-07-26T20:44:53.895Z,17.80
2022-07-26T20:47:23.021Z,17.79
2022-07-26T20:49:51.383Z,17.81
2022-07-26T20:52:19.710Z,17.79
2022-07-26T20:54:48.090Z,17.78
2022-07-26T20:57:16.374Z,17.79
2022-07-26T20:59:45.937Z,17.80
2022-07-26T21:02:14.233Z,17.80
2022-07-26T21:04:42.420Z,17.78
2022-07-26T21:07:10.637Z,17.78
2022-07-26T21:09:38.927Z,17.81
2022-07-26T21:12:07.657Z,17.81
2022-07-26T21:14:35.976Z,17.82
2022-07-26T21:17:10.987Z,17.81
2022-07-26T21:19:40.231Z,17.83
2022-07-26T21:22:08.579Z,17.83
2022-07-26T21:24:37.214Z,17.81
2022-07-26T21:27:06.994Z,17.80
2022-07-26T21:29:39.258Z,17.81
2022-07-26T21:32:09.395Z,17.81
2022-07-26T21:34:39.777Z,17.81
2022-07-26T21:37:08.165Z,17.83
2022-07-26T21:39:36.445Z,17.83
2022-07-26T21:42:05.180Z,17.83
2022-07-26T21:44:33.491Z,17.85
2022-07-26T21:47:01.734Z,17.85
2022-07-26T21:49:31.601Z,17.84
2022-07-26T21:51:59.982Z,17.82
2022-07-26T21:54:28.270Z,17.83
2022-07-26T21:56:56.476Z,17.84
2022-07-26T21:59:25.015Z,17.79
2022-07-26T22:01:53.297Z,17.80
2022-07-26T22:04:22.501Z,17.78
2022-07-26T22:06:52.094Z,17.79
2022-07-26T22:09:20.345Z,17.78
2022-07-26T22:11:48.564Z,17.74
2022-07-26T22:14:17.477Z,17.74
2022-07-26T22:16:47.662Z,17.72
2022-07-26T22:19:16.046Z,17.70
2022-07-26T22:21:44.358Z,17.70
2022-07-26T22:24:14.685Z,17.69
2022-07-26T22:26:43.174Z,17.68
2022-07-26T22:29:11.804Z,17.67
2022-07-26T22:31:40.292Z,17.61
2022-07-26T22:34:08.638Z,17.57
2022-07-26T22:36:39.007Z,17.54
2022-07-26T22:39:13.590Z,17.51
2022-07-26T22:42:12.683Z,17.46
2022-07-26T22:44:30.813Z,17.41
2022-07-26T22:46:59.022Z,17.37
2022-07-26T22:49:27.635Z,17.33
2022-07-26T22:51:55.915Z,17.28
2022-07-26T22:54:25.537Z,17.26
2022-07-26T22:56:53.946Z,17.21
2022-07-26T22:59:22.687Z,17.15
2022-07-26T23:01:51.358Z,17.16
2022-07-26T23:04:19.634Z,17.13
2022-07-26T23:06:49.506Z,17.09
2022-07-26T23:09:17.835Z,17.04
2022-07-26T23:11:47.740Z,17.00
2022-07-26T23:14:16.075Z,16.98
2022-07-26T23:16:44.246Z,16.95
2022-07-26T23:19:13.058Z,16.89
2022-07-26T23:21:41.584Z,16.86
2022-07-26T23:24:09.904Z,16.82
2022-07-26T23:26:38.409Z,16.79
2022-07-26T23:29:08.679Z,16.75
2022-07-26T23:31:38.386Z,16.72
2022-07-26T23:34:06.807Z,16.68
2022-07-26T23:36:35.251Z,16.67
2022-07-26T23:39:03.465Z,16.66
2022-07-26T23:41:31.748Z,16.62
2022-07-26T23:44:00.015Z,16.60
2022-07-26T23:46:29.782Z,16.58
2022-07-26T23:48:59.054Z,16.57
2022-07-26T23:51:27.380Z,16.56
2022-07-26T23:53:55.661Z,16.53
2022-07-26T23:56:24.216Z,16.52
2022-07-26T23:58:52.626Z,16.51
